Croftville, Minnesota
Current Conditions -  °F | °C
As of 2:34 PM on Saturday 25 Oct 2014 (Local Time) from KCKC Reporting Station
Clear Clear  
Wind Chill: 50°   Ceiling: Unl
Heat Index: 50°   Visibility: 10mi
Dew Point: 27°   Wind: 21mph
Humidity: 40%   Direction: 270°W
Pressure: 29.77"   Gusts: 36mph
Location:  47.8874°N, 90.328°W
Report Text: KCKC 251934Z AUTO 27018G31KT 10SM CLR 10/M03 A2977 RMK AO2
Loading
Personal Weather Stations






























Interactive Weather Map
Tropical Storm Tracking
New forecast layout! Learn more

10-Day Weather Forecast

Advertisements
Track Severe Weather on mobile